Time;durP1;ratioP1;P1;durP2;ratioP2;P2;SDS_P1;SDS_P2;PMS_P1;PMS_P2;Temp;Humidity;BMP_temperature;BMP_pressure;BME280_temperature;BME280_humidity;BME280_pressure;Samples;Min_cycle;Max_cycle;Signal;HPM_P1;HPM_P2
2022/03/25 00:02:09;;;;;;;;;45.00;31.50;;;;;;;;2;261090904;261090904;-83
2022/03/25 00:11:10;;;;;;;;;52.00;39.00;;;;;;;;2;261089365;261089365;-83
2022/03/25 00:19:25;;;;;;;;;44.00;38.50;;;;;;;;2;261080658;261080658;-82
2022/03/25 00:28:25;;;;;;;;;37.50;31.00;;;;;;;;2;261078897;261078897;-82
2022/03/25 00:36:41;;;;;;;;;51.50;42.00;;;;;;;;2;261074881;261074881;-82
2022/03/25 00:45:41;;;;;;;;;56.50;37.50;;;;;;;;2;261077953;261077953;-82
2022/03/25 00:53:57;;;;;;;;;54.50;35.50;;;;;;;;2;261071749;261071749;-83
2022/03/25 01:02:58;;;;;;;;;62.50;39.00;;;;;;;;2;261074198;261074198;-83
2022/03/25 01:11:14;;;;;;;;;39.00;35.00;;;;;;;;2;261075368;261075368;-83
2022/03/25 01:20:17;;;;;;;;;58.00;38.50;;;;;;;;2;261076370;261076370;-83
2022/03/25 01:28:34;;;;;;;;;38.00;33.50;;;;;;;;2;261079174;261079174;-83
2022/03/25 01:37:35;;;;;;;;;51.50;37.50;;;;;;;;2;261079122;261079122;-81
2022/03/25 01:45:50;;;;;;;;;68.00;40.50;;;;;;;;2;261076923;261076923;-83
2022/03/25 01:54:53;;;;;;;;;41.50;35.50;;;;;;;;2;261078195;261078195;-84
2022/03/25 02:03:08;;;;;;;;;47.50;38.00;;;;;;;;2;261076738;261076738;-83
2022/03/25 02:12:09;;;;;;;;;47.00;38.50;;;;;;;;2;261076403;261076403;-83
2022/03/25 02:20:24;;;;;;;;;44.00;38.00;;;;;;;;2;261078662;261078662;-83
2022/03/25 02:29:25;;;;;;;;;61.50;35.00;;;;;;;;2;261078807;261078807;-81
2022/03/25 02:37:40;;;;;;;;;40.50;35.50;;;;;;;;2;261076256;261076256;-81
2022/03/25 02:46:40;;;;;;;;;30.00;26.00;;;;;;;;2;261076966;261076966;-81
2022/03/25 02:54:56;;;;;;;;;37.50;34.00;;;;;;;;2;261076852;261076852;-80
2022/03/25 03:03:56;;;;;;;;;55.00;41.50;;;;;;;;2;261077728;261077728;-81
2022/03/25 03:12:13;;;;;;;;;59.00;41.00;;;;;;;;2;261080342;261080342;-80
2022/03/25 03:21:13;;;;;;;;;51.00;42.00;;;;;;;;2;261073708;261073708;-80
2022/03/25 03:29:29;;;;;;;;;47.50;41.00;;;;;;;;2;261078232;261078232;-81
2022/03/25 03:38:29;;;;;;;;;37.00;34.00;;;;;;;;2;261078913;261078913;-83
2022/03/25 03:46:44;;;;;;;;;47.50;38.50;;;;;;;;2;261078087;261078087;-80
2022/03/25 03:55:45;;;;;;;;;62.00;35.50;;;;;;;;2;261075349;261075349;-80
2022/03/25 04:04:00;;;;;;;;;42.50;35.50;;;;;;;;2;261077174;261077174;-80
2022/03/25 04:13:01;;;;;;;;;45.00;36.00;;;;;;;;2;261076644;261076644;-83
2022/03/25 04:21:16;;;;;;;;;53.00;34.50;;;;;;;;2;261077199;261077199;-83
2022/03/25 04:30:18;;;;;;;;;42.50;29.50;;;;;;;;2;261074730;261074730;-83
2022/03/25 04:38:34;;;;;;;;;56.50;30.50;;;;;;;;2;261078392;261078392;-83
2022/03/25 04:47:34;;;;;;;;;39.00;33.00;;;;;;;;2;261079533;261079533;-80
2022/03/25 04:55:50;;;;;;;;;62.50;37.00;;;;;;;;2;261077226;261077226;-83
2022/03/25 05:04:50;;;;;;;;;34.00;32.00;;;;;;;;2;261075098;261075098;-83
2022/03/25 05:13:06;;;;;;;;;44.00;36.50;;;;;;;;2;261083833;261083833;-83
2022/03/25 05:22:07;;;;;;;;;38.50;32.50;;;;;;;;2;261080297;261080297;-82
2022/03/25 05:30:24;;;;;;;;;64.50;43.00;;;;;;;;2;261076644;261076644;-83
2022/03/25 05:39:24;;;;;;;;;56.50;43.50;;;;;;;;2;261076623;261076623;-83
2022/03/25 05:47:40;;;;;;;;;57.50;42.00;;;;;;;;2;261077850;261077850;-83
2022/03/25 05:56:41;;;;;;;;;45.00;33.50;;;;;;;;2;261076729;261076729;-82
2022/03/25 06:04:56;;;;;;;;;46.50;33.00;;;;;;;;2;261078994;261078994;-82
2022/03/25 06:13:57;;;;;;;;;59.50;44.00;;;;;;;;2;261078184;261078184;-84
2022/03/25 06:22:12;;;;;;;;;61.00;43.50;;;;;;;;2;261081659;261081659;-84
2022/03/25 06:31:13;;;;;;;;;57.00;40.50;;;;;;;;2;261077571;261077571;-85
2022/03/25 06:39:29;;;;;;;;;38.50;33.00;;;;;;;;2;261076723;261076723;-83
2022/03/25 06:48:30;;;;;;;;;49.00;35.50;;;;;;;;2;261080276;261080276;-84
2022/03/25 06:56:46;;;;;;;;;41.00;36.50;;;;;;;;2;261081539;261081539;-84
2022/03/25 07:05:46;;;;;;;;;38.00;30.50;;;;;;;;2;261077618;261077618;-85
2022/03/25 07:14:02;;;;;;;;;46.00;34.00;;;;;;;;2;261092060;261092060;-85
2022/03/25 07:23:02;;;;;;;;;53.00;36.50;;;;;;;;2;261080017;261080017;-84
2022/03/25 07:31:18;;;;;;;;;44.00;39.00;;;;;;;;2;261077768;261077768;-84
2022/03/25 07:40:19;;;;;;;;;58.50;45.50;;;;;;;;2;261078491;261078491;-85
2022/03/25 07:48:34;;;;;;;;;54.50;42.50;;;;;;;;2;261076962;261076962;-82
2022/03/25 07:57:36;;;;;;;;;63.00;40.50;;;;;;;;2;261077319;261077319;-86
2022/03/25 08:05:52;;;;;;;;;68.00;41.50;;;;;;;;2;261077189;261077189;-83
2022/03/25 08:14:53;;;;;;;;;66.50;53.50;;;;;;;;2;261075186;261075186;-80
2022/03/25 08:23:11;;;;;;;;;54.50;42.00;;;;;;;;2;261075855;261075855;-81
2022/03/25 08:32:12;;;;;;;;;59.00;39.50;;;;;;;;2;261076822;261076822;-80
2022/03/25 08:40:29;;;;;;;;;56.50;45.00;;;;;;;;2;261073694;261073694;-82
2022/03/25 08:49:31;;;;;;;;;41.00;37.00;;;;;;;;2;261075935;261075935;-81
2022/03/25 08:57:49;;;;;;;;;54.00;44.00;;;;;;;;2;261077974;261077974;-81
2022/03/25 09:06:49;;;;;;;;;48.50;41.50;;;;;;;;2;261074647;261074647;-81
2022/03/25 09:15:05;;;;;;;;;43.50;34.50;;;;;;;;2;261074362;261074362;-81
2022/03/25 09:24:06;;;;;;;;;54.50;45.00;;;;;;;;2;261076755;261076755;-81
2022/03/25 09:32:21;;;;;;;;;47.50;39.50;;;;;;;;2;261077511;261077511;-81
2022/03/25 09:41:23;;;;;;;;;65.00;49.50;;;;;;;;2;261076582;261076582;-85
2022/03/25 09:49:38;;;;;;;;;54.00;44.50;;;;;;;;2;261077572;261077572;-86
2022/03/25 09:58:38;;;;;;;;;63.50;43.00;;;;;;;;2;261075499;261075499;-84
2022/03/25 10:06:54;;;;;;;;;62.00;47.00;;;;;;;;2;261074862;261074862;-85
2022/03/25 10:15:54;;;;;;;;;51.50;43.50;;;;;;;;2;261076920;261076920;-85
2022/03/25 10:24:09;;;;;;;;;59.00;44.50;;;;;;;;2;261077682;261077682;-85
2022/03/25 10:33:19;;;;;;;;;59.50;46.00;;;;;;;;2;261077761;261077761;-85
2022/03/25 10:41:42;;;;;;;;;65.00;42.50;;;;;;;;2;261076574;261076574;-86
2022/03/25 10:50:57;;;;;;;;;57.00;48.00;;;;;;;;2;261074725;261074725;-85
2022/03/25 10:59:39;;;;;;;;;57.00;42.50;;;;;;;;2;261077281;261077281;-85
2022/03/25 11:08:39;;;;;;;;;61.50;46.00;;;;;;;;2;261076263;261076263;-85
2022/03/25 11:16:56;;;;;;;;;60.50;45.00;;;;;;;;2;261075049;261075049;-87
2022/03/25 11:25:58;;;;;;;;;57.00;46.00;;;;;;;;2;261075452;261075452;-90
2022/03/25 11:34:19;;;;;;;;;65.50;48.50;;;;;;;;2;261075004;261075004;-89
2022/03/25 11:43:25;;;;;;;;;50.50;43.00;;;;;;;;2;261075622;261075622;-88
2022/03/25 11:51:40;;;;;;;;;55.00;46.50;;;;;;;;2;261077821;261077821;-89
2022/03/25 12:00:41;;;;;;;;;65.50;47.00;;;;;;;;2;261076317;261076317;-90
2022/03/25 12:09:08;;;;;;;;;66.50;43.50;;;;;;;;2;261074760;261074760;-91
2022/03/25 12:18:27;;;;;;;;;38.00;35.00;;;;;;;;2;261074494;261074494;-89
2022/03/25 12:26:43;;;;;;;;;57.50;38.50;;;;;;;;2;261074637;261074637;-89
2022/03/25 12:35:43;;;;;;;;;60.00;49.00;;;;;;;;2;261077989;261077989;-88
2022/03/25 12:44:00;;;;;;;;;65.00;46.00;;;;;;;;2;261075600;261075600;-89
2022/03/25 12:53:00;;;;;;;;;51.50;42.50;;;;;;;;2;260897189;260897189;-89
2022/03/25 13:01:16;;;;;;;;;46.00;36.50;;;;;;;;2;261078821;261078821;-88
2022/03/25 13:10:17;;;;;;;;;45.00;39.50;;;;;;;;2;261077913;261077913;-87
2022/03/25 13:18:33;;;;;;;;;47.00;40.50;;;;;;;;2;261075010;261075010;-86
2022/03/25 13:27:33;;;;;;;;;56.50;44.50;;;;;;;;2;260542307;260542307;-86
2022/03/25 13:35:50;;;;;;;;;38.00;32.50;;;;;;;;2;261077438;261077438;-85
2022/03/25 13:44:50;;;;;;;;;57.50;42.00;;;;;;;;2;261079203;261079203;-90
2022/03/25 13:53:19;;;;;;;;;71.00;48.50;;;;;;;;2;261080064;261080064;-88
2022/03/25 14:02:20;;;;;;;;;52.00;40.50;;;;;;;;2;261077600;261077600;-85
2022/03/25 14:10:37;;;;;;;;;63.00;44.50;;;;;;;;2;261075448;261075448;-86
2022/03/25 14:19:38;;;;;;;;;48.50;35.00;;;;;;;;2;261077755;261077755;-88
2022/03/25 14:27:56;;;;;;;;;44.50;38.50;;;;;;;;2;261075952;261075952;-87
2022/03/25 14:36:56;;;;;;;;;42.00;37.00;;;;;;;;2;261081356;261081356;-86
2022/03/25 14:45:13;;;;;;;;;49.50;42.50;;;;;;;;2;261075144;261075144;-88
2022/03/25 14:54:14;;;;;;;;;40.50;35.50;;;;;;;;2;261076339;261076339;-94
2022/03/25 15:02:29;;;;;;;;;47.50;40.00;;;;;;;;2;261075949;261075949;-92
2022/03/25 15:11:29;;;;;;;;;47.00;38.50;;;;;;;;2;261077983;261077983;-88
2022/03/25 15:19:45;;;;;;;;;58.50;38.00;;;;;;;;2;261083319;261083319;-88
2022/03/25 15:28:45;;;;;;;;;47.50;32.50;;;;;;;;2;261077691;261077691;-92
2022/03/25 15:37:01;;;;;;;;;42.50;32.50;;;;;;;;2;261079049;261079049;-91
2022/03/25 15:46:02;;;;;;;;;56.00;41.00;;;;;;;;2;261078036;261078036;-90
2022/03/25 15:54:17;;;;;;;;;45.50;37.00;;;;;;;;2;261081778;261081778;-87
2022/03/25 16:03:18;;;;;;;;;29.00;28.50;;;;;;;;2;261081161;261081161;-88
2022/03/25 16:11:34;;;;;;;;;53.00;35.50;;;;;;;;2;261079702;261079702;-88
2022/03/25 16:20:35;;;;;;;;;62.50;47.00;;;;;;;;2;261081206;261081206;-87
2022/03/25 16:28:50;;;;;;;;;47.50;40.00;;;;;;;;2;261083407;261083407;-87
2022/03/25 16:37:51;;;;;;;;;53.50;37.50;;;;;;;;2;261080638;261080638;-87
2022/03/25 16:46:06;;;;;;;;;50.50;43.00;;;;;;;;2;261080335;261080335;-87
2022/03/25 16:55:08;;;;;;;;;49.00;37.50;;;;;;;;2;261082031;261082031;-87
2022/03/25 17:03:23;;;;;;;;;58.50;45.50;;;;;;;;2;261075765;261075765;-87
2022/03/25 17:12:23;;;;;;;;;68.00;50.00;;;;;;;;2;261083817;261083817;-88
2022/03/25 17:20:39;;;;;;;;;76.50;50.50;;;;;;;;2;261076262;261076262;-87
2022/03/25 17:29:41;;;;;;;;;56.00;40.00;;;;;;;;2;261077383;261077383;-88
2022/03/25 17:37:56;;;;;;;;;52.00;40.50;;;;;;;;2;261078445;261078445;-86
2022/03/25 17:46:57;;;;;;;;;54.50;42.00;;;;;;;;2;261077137;261077137;-87
2022/03/25 17:55:19;;;;;;;;;32.00;30.00;;;;;;;;2;261081827;261081827;-85
2022/03/25 18:04:19;;;;;;;;;35.00;32.00;;;;;;;;2;261083384;261083384;-87
2022/03/25 18:12:35;;;;;;;;;44.00;38.50;;;;;;;;2;261077580;261077580;-85
2022/03/25 18:21:35;;;;;;;;;50.50;32.00;;;;;;;;2;261083249;261083249;-88
2022/03/25 18:39:29;;;;;;;;;23.50;23.00;;;;;;;;2;261079217;261079217;-83
2022/03/25 18:47:44;;;;;;;;;48.50;37.50;;;;;;;;2;261082962;261082962;-83
2022/03/25 18:56:45;;;;;;;;;42.50;35.50;;;;;;;;2;261085123;261085123;-84
2022/03/25 19:05:00;;;;;;;;;54.00;35.50;;;;;;;;2;261084563;261084563;-83
2022/03/25 19:14:01;;;;;;;;;60.00;40.50;;;;;;;;2;261080055;261080055;-83
2022/03/25 19:22:17;;;;;;;;;41.50;34.50;;;;;;;;2;261079150;261079150;-84
2022/03/25 19:31:19;;;;;;;;;35.00;31.00;;;;;;;;2;261086904;261086904;-83
2022/03/25 19:39:34;;;;;;;;;49.50;34.00;;;;;;;;2;261081172;261081172;-82
2022/03/25 19:48:38;;;;;;;;;46.00;32.50;;;;;;;;2;261082225;261082225;-82
2022/03/25 19:56:56;;;;;;;;;49.00;27.00;;;;;;;;2;261082715;261082715;-82
2022/03/25 20:05:56;;;;;;;;;19.00;19.00;;;;;;;;2;261076741;261076741;-83
2022/03/25 20:14:14;;;;;;;;;27.00;24.00;;;;;;;;2;261075253;261075253;-83
2022/03/25 20:23:14;;;;;;;;;31.50;26.00;;;;;;;;2;261082233;261082233;-84
2022/03/25 20:31:30;;;;;;;;;23.00;23.00;;;;;;;;2;261077040;261077040;-84
2022/03/25 20:40:31;;;;;;;;;35.50;31.00;;;;;;;;2;261077542;261077542;-82
2022/03/25 20:48:47;;;;;;;;;45.50;32.00;;;;;;;;2;261076514;261076514;-82
2022/03/25 20:57:47;;;;;;;;;32.00;26.50;;;;;;;;2;261080039;261080039;-82
2022/03/25 21:06:02;;;;;;;;;16.00;16.00;;;;;;;;2;261075685;261075685;-82
2022/03/25 21:15:03;;;;;;;;;26.50;26.50;;;;;;;;2;261079454;261079454;-80
2022/03/25 21:23:19;;;;;;;;;37.00;30.50;;;;;;;;2;261075075;261075075;-80
2022/03/25 21:32:19;;;;;;;;;34.00;31.50;;;;;;;;2;261075283;261075283;-80
2022/03/25 21:40:36;;;;;;;;;25.00;25.00;;;;;;;;2;261077939;261077939;-83
2022/03/25 21:49:37;;;;;;;;;51.00;37.00;;;;;;;;2;261078789;261078789;-82
2022/03/25 21:57:53;;;;;;;;;28.00;27.50;;;;;;;;2;261077748;261077748;-82
2022/03/25 22:06:53;;;;;;;;;33.00;25.50;;;;;;;;2;261076992;261076992;-83
2022/03/25 22:15:09;;;;;;;;;44.50;39.00;;;;;;;;2;261081180;261081180;-82
2022/03/25 22:27:29;;;;;;;;;52.00;35.50;;;;;;;;2;261078691;261078691;-82
2022/03/25 22:35:44;;;;;;;;;48.50;33.00;;;;;;;;2;261080127;261080127;-82
2022/03/25 22:44:45;;;;;;;;;50.00;34.00;;;;;;;;2;261075793;261075793;-82
2022/03/25 22:53:00;;;;;;;;;39.50;33.50;;;;;;;;2;261079436;261079436;-82
2022/03/25 23:02:01;;;;;;;;;30.00;29.00;;;;;;;;2;261076907;261076907;-82
2022/03/25 23:10:16;;;;;;;;;45.00;32.50;;;;;;;;2;261075522;261075522;-83
2022/03/25 23:19:17;;;;;;;;;45.50;35.50;;;;;;;;2;261082204;261082204;-84
2022/03/25 23:27:32;;;;;;;;;55.50;41.00;;;;;;;;2;261074220;261074220;-84
2022/03/25 23:36:34;;;;;;;;;55.00;44.50;;;;;;;;2;261077202;261077202;-83
2022/03/25 23:44:49;;;;;;;;;35.00;33.00;;;;;;;;2;261076911;261076911;-82
2022/03/25 23:53:50;;;;;;;;;59.50;44.50;;;;;;;;2;261079520;261079520;-83
